Time;durP1;ratioP1;P1;durP2;ratioP2;P2;SDS_P1;SDS_P2;PMS_P1;PMS_P2;Temp;Humidity;BMP_temperature;BMP_pressure;BME280_temperature;BME280_humidity;BME280_pressure;Samples;Min_cycle;Max_cycle;Signal;HPM_P1;HPM_P2
2021/07/25 00:00:33;;;;;;;11.43;10.27;;;25.80;91.80;;;;;;5068654;28;20348;-73
2021/07/25 00:02:59;;;;;;;10.52;9.70;;;25.80;91.80;;;;;;5068242;28;20543;-73
2021/07/25 00:05:26;;;;;;;10.90;9.90;;;25.80;91.80;;;;;;5068470;28;20227;-73
2021/07/25 00:07:52;;;;;;;11.73;9.73;;;25.80;91.80;;;;;;5068595;28;20203;-73
2021/07/25 00:10:21;;;;;;;10.77;9.77;;;25.80;91.70;;;;;;5068137;28;20344;-73
2021/07/25 00:12:47;;;;;;;10.43;9.52;;;25.70;91.80;;;;;;5068672;28;20634;-73
2021/07/25 00:15:14;;;;;;;10.65;9.65;;;25.80;92.00;;;;;;5068502;28;20235;-73
2021/07/25 00:17:41;;;;;;;9.77;8.98;;;25.70;91.90;;;;;;5068624;28;20234;-74
2021/07/25 00:20:09;;;;;;;11.07;10.07;;;25.60;91.90;;;;;;5068400;28;20215;-74
2021/07/25 00:22:36;;;;;;;10.80;9.80;;;25.60;91.80;;;;;;5068485;28;20235;-73
2021/07/25 00:25:08;;;;;;;10.93;9.80;;;25.60;92.00;;;;;;5068467;28;20230;-74
2021/07/25 00:27:39;;;;;;;10.55;9.45;;;25.60;92.00;;;;;;5068398;28;20646;-73
2021/07/25 00:30:07;;;;;;;10.80;9.82;;;25.60;91.90;;;;;;5068360;28;20223;-74
2021/07/25 00:32:34;;;;;;;10.13;9.23;;;25.60;91.80;;;;;;5072723;28;20266;-73
2021/07/25 00:35:01;;;;;;;9.88;9.00;;;25.50;91.80;;;;;;5075206;28;20265;-73
2021/07/25 00:37:27;;;;;;;11.20;10.25;;;25.50;91.80;;;;;;5075240;28;20239;-74
2021/07/25 00:39:54;;;;;;;10.65;9.65;;;25.40;91.80;;;;;;5075264;28;20348;-73
2021/07/25 00:42:21;;;;;;;11.07;9.98;;;25.50;91.80;;;;;;5074989;28;20274;-74
2021/07/25 00:44:48;;;;;;;10.35;9.38;;;25.50;91.70;;;;;;5075247;28;20260;-73
2021/07/25 00:47:16;;;;;;;14.38;9.68;;;25.40;91.70;;;;;;5075163;28;20203;-73
2021/07/25 00:49:43;;;;;;;9.63;8.73;;;25.40;91.90;;;;;;5075113;28;20199;-73
2021/07/25 00:52:09;;;;;;;10.77;9.82;;;25.40;91.80;;;;;;5075240;28;20199;-74
2021/07/25 00:54:37;;;;;;;10.82;9.50;;;25.40;91.70;;;;;;5075090;28;20292;-74
2021/07/25 00:57:04;;;;;;;10.40;9.32;;;25.40;91.70;;;;;;5074937;28;20234;-73
2021/07/25 00:59:31;;;;;;;14.07;10.48;;;25.40;91.70;;;;;;5074668;28;20211;-74
2021/07/25 01:01:59;;;;;;;10.50;9.55;;;25.40;91.70;;;;;;5074930;28;20234;-73
2021/07/25 01:04:39;;;;;;;11.20;10.20;;;25.30;91.90;;;;;;5074868;28;20223;-73
2021/07/25 01:07:16;;;;;;;12.95;9.68;;;25.30;91.90;;;;;;5074842;28;20230;-74
2021/07/25 01:09:49;;;;;;;10.57;9.57;;;25.20;91.90;;;;;;5074559;28;20297;-73
2021/07/25 01:12:18;;;;;;;11.65;10.05;;;25.20;91.90;;;;;;5074965;28;20253;-73
2021/07/25 01:14:46;;;;;;;11.02;9.63;;;25.20;92.00;;;;;;5074575;28;20207;-74
2021/07/25 01:17:28;;;;;;;10.77;9.77;;;25.20;92.00;;;;;;5074686;28;20207;-75
2021/07/25 01:19:57;;;;;;;10.60;9.50;;;25.10;92.10;;;;;;5074565;28;20261;-75
2021/07/25 01:22:26;;;;;;;13.30;10.35;;;25.10;92.20;;;;;;5074368;28;20227;-76
2021/07/25 01:24:53;;;;;;;10.50;9.57;;;25.10;92.30;;;;;;5074545;28;20235;-74
2021/07/25 01:27:27;;;;;;;12.27;10.18;;;25.10;92.20;;;;;;5074345;28;20247;-74
2021/07/25 01:29:56;;;;;;;10.85;9.85;;;25.10;92.20;;;;;;5074701;28;20277;-73
2021/07/25 01:32:23;;;;;;;11.07;9.90;;;25.10;92.20;;;;;;5068399;28;20247;-72
2021/07/25 01:34:50;;;;;;;10.77;9.77;;;25.00;92.20;;;;;;5059078;28;20593;-72
2021/07/25 01:37:18;;;;;;;11.07;10.02;;;25.00;92.20;;;;;;5073933;28;20208;-73
2021/07/25 01:39:45;;;;;;;11.25;10.07;;;25.00;92.30;;;;;;5074273;28;20297;-73
2021/07/25 01:42:12;;;;;;;10.18;9.20;;;25.00;92.30;;;;;;5074002;28;20235;-74
2021/07/25 01:44:39;;;;;;;10.48;9.48;;;24.90;92.10;;;;;;5070206;28;20248;-73
2021/07/25 01:47:05;;;;;;;11.70;10.57;;;24.90;92.10;;;;;;5070872;28;20199;-74
2021/07/25 01:49:32;;;;;;;12.20;9.57;;;24.90;92.20;;;;;;5071039;28;20285;-74
2021/07/25 01:51:59;;;;;;;10.85;9.75;;;24.90;92.30;;;;;;5071198;28;20567;-73
2021/07/25 01:54:26;;;;;;;10.57;9.57;;;24.80;92.40;;;;;;5070987;28;20211;-73
2021/07/25 01:56:53;;;;;;;11.43;10.10;;;24.90;92.30;;;;;;5071296;28;20258;-73
2021/07/25 01:59:20;;;;;;;10.50;9.60;;;24.80;92.20;;;;;;5070275;28;20268;-73
2021/07/25 02:01:46;;;;;;;10.95;9.95;;;24.80;92.30;;;;;;5070780;28;20231;-73
2021/07/25 02:04:13;;;;;;;10.77;9.80;;;24.80;92.30;;;;;;5070976;28;20273;-73
2021/07/25 02:06:39;;;;;;;10.45;9.55;;;24.80;92.40;;;;;;5071438;28;20249;-73
2021/07/25 02:09:08;;;;;;;12.65;10.07;;;24.80;92.50;;;;;;5070639;28;20239;-72
2021/07/25 02:11:38;;;;;;;10.52;9.68;;;24.80;92.40;;;;;;5071382;28;20261;-72
2021/07/25 02:14:04;;;;;;;12.13;10.88;;;24.80;92.60;;;;;;5070961;28;20231;-73
2021/07/25 02:16:33;;;;;;;10.48;9.50;;;24.70;92.50;;;;;;5071065;28;20203;-72
2021/07/25 02:18:59;;;;;;;10.45;9.45;;;24.60;92.70;;;;;;5070534;28;20243;-72
2021/07/25 02:21:26;;;;;;;12.02;10.80;;;24.60;92.70;;;;;;5070416;28;20717;-73
2021/07/25 02:23:53;;;;;;;11.63;10.60;;;24.60;92.80;;;;;;5070782;28;21003;-73
2021/07/25 02:26:19;;;;;;;11.27;10.18;;;24.60;92.90;;;;;;5070526;28;20592;-73
2021/07/25 02:28:47;;;;;;;11.57;10.40;;;24.60;92.90;;;;;;5070743;28;20255;-74
2021/07/25 02:31:14;;;;;;;11.32;10.25;;;24.50;93.00;;;;;;5070748;28;20238;-74
2021/07/25 02:33:40;;;;;;;12.57;10.75;;;24.50;93.10;;;;;;5070716;28;20231;-73
2021/07/25 02:36:07;;;;;;;12.15;10.85;;;24.50;93.20;;;;;;5070403;28;20235;-73
2021/07/25 02:38:33;;;;;;;11.65;10.40;;;24.50;93.20;;;;;;5070544;28;20239;-73
2021/07/25 02:41:00;;;;;;;13.43;11.98;;;24.40;93.20;;;;;;5070437;28;20207;-73
2021/07/25 02:43:27;;;;;;;11.98;10.63;;;24.40;93.20;;;;;;5070367;28;20280;-73
2021/07/25 02:45:55;;;;;;;12.38;10.93;;;24.40;93.30;;;;;;5070414;28;20204;-73
2021/07/25 02:48:21;;;;;;;11.43;10.40;;;24.40;93.40;;;;;;5070213;28;20218;-73
2021/07/25 02:50:48;;;;;;;12.75;11.52;;;24.40;93.40;;;;;;5070224;28;20231;-73
2021/07/25 02:53:15;;;;;;;11.27;10.18;;;24.30;93.50;;;;;;5070120;28;20218;-71
2021/07/25 02:55:41;;;;;;;12.13;10.90;;;24.30;93.50;;;;;;5069709;28;20234;-71
2021/07/25 02:58:08;;;;;;;11.63;10.52;;;24.30;93.50;;;;;;5070069;28;20280;-71
2021/07/25 03:00:34;;;;;;;12.57;11.45;;;24.30;93.50;;;;;;5069942;28;20258;-71
2021/07/25 03:03:02;;;;;;;14.60;11.25;;;24.30;93.50;;;;;;5069632;28;20274;-71
2021/07/25 03:05:29;;;;;;;11.77;10.73;;;24.30;93.50;;;;;;5069733;28;20227;-71
2021/07/25 03:07:56;;;;;;;12.15;11.02;;;24.30;93.60;;;;;;5069886;28;20239;-71
2021/07/25 03:10:22;;;;;;;12.70;11.40;;;24.30;93.80;;;;;;5069252;28;20639;-71
2021/07/25 03:12:49;;;;;;;15.88;11.98;;;24.20;93.70;;;;;;5069837;28;20637;-71
2021/07/25 03:15:15;;;;;;;11.88;10.77;;;24.20;93.90;;;;;;5069715;28;20256;-71
2021/07/25 03:17:42;;;;;;;12.48;11.18;;;24.10;93.90;;;;;;5069755;28;20623;-72
2021/07/25 03:20:11;;;;;;;11.98;10.75;;;24.10;94.10;;;;;;5069681;28;20211;-72
2021/07/25 03:22:38;;;;;;;11.98;10.88;;;24.10;94.10;;;;;;5069553;28;20234;-72
2021/07/25 03:25:06;;;;;;;14.02;11.45;;;24.10;94.10;;;;;;5069606;28;20573;-72
2021/07/25 03:27:33;;;;;;;12.43;11.30;;;24.00;94.20;;;;;;5069477;28;20327;-73
2021/07/25 03:29:59;;;;;;;12.82;11.52;;;24.00;94.40;;;;;;5069294;28;20274;-73
2021/07/25 03:32:26;;;;;;;12.35;10.80;;;23.90;94.40;;;;;;5069173;28;20243;-73
2021/07/25 03:34:53;;;;;;;12.05;11.00;;;23.80;94.60;;;;;;5069325;28;20226;-72
2021/07/25 03:37:21;;;;;;;14.40;11.52;;;23.70;94.90;;;;;;5068791;28;20207;-72
2021/07/25 03:39:50;;;;;;;12.40;11.15;;;23.70;95.00;;;;;;5069053;28;20622;-72
2021/07/25 03:42:17;;;;;;;13.00;11.57;;;23.70;95.00;;;;;;5068919;28;20223;-73
2021/07/25 03:44:44;;;;;;;11.80;10.63;;;23.70;95.00;;;;;;5069116;28;20245;-72
2021/07/25 03:47:11;;;;;;;11.93;10.82;;;23.80;95.00;;;;;;5068920;28;20284;-71
2021/07/25 03:49:39;;;;;;;12.68;11.52;;;23.70;95.10;;;;;;5068759;28;20621;-71
2021/07/25 03:52:06;;;;;;;13.30;11.93;;;23.70;95.10;;;;;;5068828;28;20204;-71
2021/07/25 03:54:38;;;;;;;13.90;11.27;;;23.70;95.00;;;;;;5068578;28;20281;-72
2021/07/25 03:57:05;;;;;;;14.45;11.95;;;23.70;95.10;;;;;;5069221;28;20200;-72
2021/07/25 03:59:32;;;;;;;12.80;11.60;;;23.70;95.10;;;;;;5068904;28;20272;-72
2021/07/25 04:01:58;;;;;;;12.27;11.00;;;23.80;95.20;;;;;;5068976;28;20332;-72
2021/07/25 04:04:25;;;;;;;12.18;11.07;;;23.60;95.40;;;;;;5068796;28;20251;-73
2021/07/25 04:06:51;;;;;;;13.20;11.80;;;23.70;95.40;;;;;;5068335;28;20288;-73
2021/07/25 04:09:18;;;;;;;18.08;11.60;;;23.70;95.50;;;;;;5068637;28;20337;-73
2021/07/25 04:11:50;;;;;;;12.35;11.15;;;23.70;95.40;;;;;;5068914;28;20207;-73
2021/07/25 04:14:17;;;;;;;13.95;11.30;;;23.80;95.40;;;;;;5068900;28;20245;-73
2021/07/25 04:16:43;;;;;;;24.10;10.75;;;23.70;95.40;;;;;;5068915;28;20321;-73
2021/07/25 04:19:10;;;;;;;12.88;11.52;;;23.70;95.50;;;;;;5068775;28;20203;-73
2021/07/25 04:21:36;;;;;;;13.65;11.73;;;23.70;95.50;;;;;;5068736;28;20666;-74
2021/07/25 04:24:03;;;;;;;12.40;11.05;;;23.70;95.70;;;;;;5068802;28;20231;-74
2021/07/25 04:26:33;;;;;;;11.50;10.48;;;23.70;95.80;;;;;;5068471;28;20720;-73
2021/07/25 04:29:02;;;;;;;12.70;11.40;;;23.70;95.80;;;;;;5068401;28;20284;-73
2021/07/25 04:31:29;;;;;;;13.63;11.45;;;23.70;95.70;;;;;;5068472;28;20203;-73
2021/07/25 04:33:57;;;;;;;14.13;12.35;;;23.70;95.70;;;;;;5067924;28;20272;-72
2021/07/25 04:36:26;;;;;;;12.50;11.00;;;23.70;95.80;;;;;;5067979;28;20674;-72
2021/07/25 04:38:54;;;;;;;11.90;10.80;;;23.70;95.80;;;;;;5068518;28;20213;-72
2021/07/25 04:41:24;;;;;;;12.10;10.80;;;23.70;96.10;;;;;;5068159;28;20199;-72
2021/07/25 04:43:58;;;;;;;13.00;11.55;;;23.70;96.20;;;;;;5068382;28;20229;-71
2021/07/25 04:46:28;;;;;;;12.82;11.27;;;23.70;96.30;;;;;;5068313;28;20219;-72
2021/07/25 04:49:02;;;;;;;11.93;10.82;;;23.60;96.50;;;;;;5068194;28;20203;-72
2021/07/25 04:51:31;;;;;;;13.32;11.07;;;23.60;96.60;;;;;;5068259;28;20595;-73
2021/07/25 04:54:04;;;;;;;14.65;10.70;;;23.70;96.40;;;;;;5068044;28;20690;-72
2021/07/25 04:56:34;;;;;;;12.73;10.55;;;23.70;96.40;;;;;;5068087;28;20223;-73
2021/07/25 04:59:03;;;;;;;14.98;11.18;;;23.70;96.40;;;;;;5068109;28;20288;-73
2021/07/25 05:01:37;;;;;;;12.38;10.73;;;23.70;96.30;;;;;;5067922;28;20223;-72
2021/07/25 05:04:06;;;;;;;14.38;11.05;;;23.70;96.40;;;;;;5068001;28;20250;-73
2021/07/25 05:06:33;;;;;;;13.52;11.20;;;23.70;96.40;;;;;;5067887;28;20211;-73
2021/07/25 05:09:00;;;;;;;13.88;10.77;;;23.70;96.40;;;;;;5067948;28;20267;-72
2021/07/25 05:11:32;;;;;;;11.75;10.65;;;23.80;96.70;;;;;;5067927;28;20203;-73
2021/07/25 05:14:00;;;;;;;12.23;11.13;;;23.80;96.60;;;;;;5068336;28;20199;-72
2021/07/25 05:16:30;;;;;;;13.43;11.15;;;23.80;96.60;;;;;;5067877;28;20235;-72
2021/07/25 05:19:10;;;;;;;12.30;11.00;;;23.90;96.50;;;;;;5070352;28;20207;-72
2021/07/25 05:21:41;;;;;;;12.40;11.07;;;23.90;96.70;;;;;;5071799;28;20230;-72
2021/07/25 05:24:09;;;;;;;12.88;10.90;;;24.00;96.50;;;;;;5071691;28;20231;-72
2021/07/25 05:26:37;;;;;;;14.07;11.60;;;24.00;96.50;;;;;;5071579;28;20226;-72
2021/07/25 05:29:04;;;;;;;11.90;10.75;;;24.00;96.70;;;;;;5071352;28;20661;-72
2021/07/25 05:31:33;;;;;;;12.90;11.43;;;24.00;96.70;;;;;;5071435;28;20611;-72
2021/07/25 05:34:02;;;;;;;12.50;11.30;;;24.00;96.70;;;;;;5071470;28;20207;-72
2021/07/25 05:36:29;;;;;;;15.32;11.30;;;24.10;96.80;;;;;;5071825;28;20253;-72
2021/07/25 05:38:56;;;;;;;13.57;11.50;;;24.10;96.80;;;;;;5071548;28;20238;-72
2021/07/25 05:41:23;;;;;;;12.70;11.45;;;24.10;96.90;;;;;;5071148;28;20719;-72
2021/07/25 05:43:50;;;;;;;12.25;10.93;;;24.10;97.00;;;;;;5071471;28;20289;-72
2021/07/25 05:46:16;;;;;;;13.85;11.73;;;24.10;97.10;;;;;;5071006;28;20769;-72
2021/07/25 05:48:43;;;;;;;12.25;11.25;;;24.10;97.20;;;;;;5071317;28;20250;-71
2021/07/25 05:51:11;;;;;;;12.68;10.88;;;24.20;97.00;;;;;;5071393;28;20203;-72
2021/07/25 05:53:37;;;;;;;12.23;11.02;;;24.10;96.90;;;;;;5071332;28;20211;-71
2021/07/25 05:56:04;;;;;;;12.77;10.82;;;24.20;96.90;;;;;;5071450;28;20736;-71
2021/07/25 05:58:31;;;;;;;12.85;11.15;;;24.20;97.00;;;;;;5071027;28;20715;-74
2021/07/25 06:00:57;;;;;;;12.75;11.45;;;24.30;97.10;;;;;;5071194;28;20207;-74
2021/07/25 06:03:24;;;;;;;12.88;11.57;;;24.30;96.90;;;;;;5071016;28;20277;-74
2021/07/25 06:05:50;;;;;;;13.73;11.40;;;24.20;96.90;;;;;;5071121;28;20257;-74
2021/07/25 06:08:18;;;;;;;12.43;11.30;;;24.30;97.10;;;;;;5070930;28;20199;-72
2021/07/25 06:10:45;;;;;;;12.45;10.60;;;24.30;97.30;;;;;;5071050;28;20215;-71
2021/07/25 06:13:12;;;;;;;12.65;11.35;;;24.30;97.20;;;;;;5070892;28;20215;-73
2021/07/25 06:15:38;;;;;;;12.90;11.02;;;24.30;97.20;;;;;;5070602;28;20678;-73
2021/07/25 06:18:07;;;;;;;12.60;11.27;;;24.30;97.30;;;;;;5070658;28;20262;-73
2021/07/25 06:20:34;;;;;;;13.25;11.63;;;24.30;97.20;;;;;;5070520;28;20264;-72
2021/07/25 06:23:01;;;;;;;11.82;10.70;;;24.30;97.50;;;;;;5070471;28;20310;-72
2021/07/25 06:25:31;;;;;;;11.77;10.68;;;24.30;97.10;;;;;;5070293;28;20316;-72
2021/07/25 06:28:00;;;;;;;11.80;10.63;;;24.30;97.20;;;;;;5070544;28;20247;-72
2021/07/25 06:30:27;;;;;;;11.27;10.23;;;24.40;97.40;;;;;;5069889;28;20204;-72
2021/07/25 06:32:55;;;;;;;15.20;11.07;;;24.40;97.30;;;;;;5070465;28;20238;-72
2021/07/25 06:35:22;;;;;;;13.07;11.77;;;24.50;97.20;;;;;;5070192;28;20551;-72
2021/07/25 06:37:48;;;;;;;13.85;11.05;;;24.60;97.20;;;;;;5070453;28;20277;-72
2021/07/25 06:40:15;;;;;;;12.63;11.43;;;24.70;97.60;;;;;;5070188;28;20242;-72
2021/07/25 06:42:43;;;;;;;13.35;10.52;;;24.60;97.50;;;;;;5070286;28;20238;-72
2021/07/25 06:45:11;;;;;;;12.18;10.32;;;24.70;97.60;;;;;;5070187;28;20235;-72
2021/07/25 06:47:38;;;;;;;11.50;10.18;;;24.80;96.90;;;;;;5070122;28;20264;-72
2021/07/25 06:50:05;;;;;;;12.50;10.80;;;24.80;97.00;;;;;;5069742;28;20711;-72
2021/07/25 06:52:31;;;;;;;12.30;11.13;;;24.90;97.20;;;;;;5069396;28;20708;-72
2021/07/25 06:54:58;;;;;;;11.50;10.55;;;24.90;97.40;;;;;;5070142;28;20263;-71
2021/07/25 06:57:25;;;;;;;11.95;10.63;;;24.90;97.10;;;;;;5069719;28;20237;-72
2021/07/25 06:59:53;;;;;;;15.45;11.10;;;24.90;97.00;;;;;;5069480;28;20231;-71
2021/07/25 07:02:19;;;;;;;12.80;11.07;;;24.90;97.20;;;;;;5069347;28;20219;-72
2021/07/25 07:04:46;;;;;;;13.57;10.82;;;25.00;96.70;;;;;;5069458;28;20321;-72
2021/07/25 07:07:12;;;;;;;13.40;10.90;;;25.00;96.90;;;;;;5069626;28;20253;-72
2021/07/25 07:09:39;;;;;;;13.27;11.45;;;24.90;96.50;;;;;;5069015;28;20267;-71
2021/07/25 07:12:06;;;;;;;12.07;10.15;;;25.00;96.50;;;;;;5069417;28;20204;-72
2021/07/25 07:14:32;;;;;;;14.32;10.38;;;25.00;96.80;;;;;;5069063;28;20772;-72
2021/07/25 07:17:00;;;;;;;13.68;10.98;;;25.00;96.90;;;;;;5069479;28;20633;-72
2021/07/25 07:19:27;;;;;;;12.38;10.38;;;25.00;96.70;;;;;;5069137;28;20196;-74
2021/07/25 07:21:53;;;;;;;14.63;10.93;;;25.00;97.10;;;;;;5069329;28;20230;-74
2021/07/25 07:24:20;;;;;;;12.85;10.48;;;25.00;97.10;;;;;;5068962;28;20342;-73
2021/07/25 07:26:47;;;;;;;12.23;11.07;;;25.10;96.50;;;;;;5069234;28;20293;-74
2021/07/25 07:29:13;;;;;;;12.05;10.80;;;25.10;96.30;;;;;;5069333;28;20219;-73
2021/07/25 07:31:41;;;;;;;12.45;11.10;;;25.20;96.60;;;;;;5066227;28;20231;-73
2021/07/25 07:34:09;;;;;;;13.50;10.65;;;25.20;97.00;;;;;;5065153;28;20200;-74
2021/07/25 07:36:35;;;;;;;11.50;10.50;;;25.20;96.50;;;;;;5064977;28;20231;-73
2021/07/25 07:39:02;;;;;;;11.73;9.82;;;25.20;96.60;;;;;;5065414;28;20300;-74
2021/07/25 07:41:28;;;;;;;11.18;10.10;;;25.30;97.00;;;;;;5064319;28;20242;-74
2021/07/25 07:43:55;;;;;;;14.82;10.85;;;25.30;96.70;;;;;;5065140;28;20227;-74
2021/07/25 07:46:22;;;;;;;11.40;10.30;;;25.40;96.70;;;;;;5065173;28;20280;-74
2021/07/25 07:48:48;;;;;;;10.95;9.93;;;25.40;96.60;;;;;;5064776;28;20235;-73
2021/07/25 07:51:16;;;;;;;12.82;11.55;;;25.30;96.50;;;;;;5064659;28;20906;-74
2021/07/25 07:53:43;;;;;;;11.77;10.68;;;25.40;96.50;;;;;;5064865;28;20203;-73
2021/07/25 07:56:09;;;;;;;11.93;10.80;;;25.40;96.70;;;;;;5064724;28;20581;-73
2021/07/25 07:58:36;;;;;;;17.15;11.23;;;25.40;96.90;;;;;;5064979;28;20327;-74
2021/07/25 08:01:02;;;;;;;11.88;10.75;;;25.40;96.50;;;;;;5064992;28;20731;-73
2021/07/25 08:03:29;;;;;;;15.00;11.20;;;25.40;96.40;;;;;;5068445;28;20653;-75
2021/07/25 08:05:56;;;;;;;12.23;11.02;;;25.50;97.00;;;;;;5068883;28;20253;-75
2021/07/25 08:08:23;;;;;;;15.52;11.63;;;25.50;96.90;;;;;;5068644;28;20272;-75
2021/07/25 08:10:50;;;;;;;11.70;10.68;;;25.50;96.80;;;;;;5068789;28;20652;-73
2021/07/25 08:13:17;;;;;;;11.88;10.77;;;25.50;97.20;;;;;;5061612;28;20235;-72
2021/07/25 08:15:43;;;;;;;16.65;12.05;;;25.60;97.30;;;;;;5044725;28;20729;-73
2021/07/25 08:18:10;;;;;;;12.95;11.85;;;25.70;97.40;;;;;;5044852;28;20289;-73
2021/07/25 08:20:36;;;;;;;12.38;11.23;;;25.70;97.10;;;;;;5044278;28;20678;-74
2021/07/25 08:23:03;;;;;;;12.90;11.60;;;25.70;96.90;;;;;;5044834;28;20239;-74
2021/07/25 08:25:31;;;;;;;12.05;10.98;;;25.80;96.70;;;;;;5044719;28;20324;-77
2021/07/25 08:27:58;;;;;;;12.15;10.95;;;25.80;96.50;;;;;;5044533;28;20232;-77
2021/07/25 08:30:25;;;;;;;11.35;10.27;;;25.80;96.20;;;;;;5058347;28;20345;-77
2021/07/25 08:32:52;;;;;;;17.92;11.20;;;25.80;96.10;;;;;;5064080;28;20199;-75
2021/07/25 08:35:19;;;;;;;13.07;11.18;;;25.90;96.10;;;;;;5064151;28;20211;-74
2021/07/25 08:37:45;;;;;;;12.02;10.68;;;25.90;96.30;;;;;;5064104;28;20694;-74
2021/07/25 08:40:14;;;;;;;12.20;11.13;;;26.00;96.30;;;;;;5065019;28;20304;-74
2021/07/25 08:42:50;;;;;;;11.80;10.80;;;26.00;96.30;;;;;;5064558;28;20207;-74
2021/07/25 08:45:17;;;;;;;12.00;10.80;;;26.10;96.70;;;;;;5064735;28;20222;-74
2021/07/25 08:47:45;;;;;;;12.00;10.90;;;26.20;96.60;;;;;;5064507;28;20207;-74
2021/07/25 08:50:14;;;;;;;11.68;10.63;;;26.30;95.80;;;;;;5064489;28;20260;-74
2021/07/25 08:52:43;;;;;;;11.70;10.57;;;26.30;95.60;;;;;;5065332;28;20230;-74
2021/07/25 08:55:12;;;;;;;12.93;11.65;;;26.30;95.70;;;;;;5068743;28;20207;-74
2021/07/25 08:57:41;;;;;;;12.25;10.98;;;26.40;95.80;;;;;;5068458;28;20211;-74
2021/07/25 09:00:11;;;;;;;12.05;10.40;;;26.40;95.50;;;;;;5068654;28;20768;-74
2021/07/25 09:02:38;;;;;;;12.02;10.82;;;26.50;95.70;;;;;;5068277;28;20253;-74
2021/07/25 09:05:07;;;;;;;12.50;11.18;;;26.60;95.90;;;;;;5068190;28;20275;-74
2021/07/25 09:07:34;;;;;;;14.65;11.18;;;26.60;95.60;;;;;;5068248;28;20257;-74
2021/07/25 09:10:05;;;;;;;12.82;10.95;;;26.70;95.90;;;;;;5068196;28;20275;-74
2021/07/25 09:12:32;;;;;;;12.10;10.85;;;26.70;96.10;;;;;;5068325;28;20199;-74
2021/07/25 09:15:03;;;;;;;11.88;10.60;;;26.70;95.50;;;;;;5067905;28;20226;-74
2021/07/25 09:17:31;;;;;;;12.07;10.82;;;26.70;95.80;;;;;;5068186;28;20204;-74
2021/07/25 09:20:23;;;;;;;13.52;11.32;;;26.80;95.40;;;;;;5068139;28;20243;-74
2021/07/25 09:23:08;;;;;;;12.98;11.63;;;26.90;95.70;;;;;;5067947;28;20203;-74
2021/07/25 09:25:37;;;;;;;12.75;11.55;;;26.90;95.60;;;;;;5067372;28;20701;-74
2021/07/25 09:28:26;;;;;;;12.00;10.98;;;26.90;95.80;;;;;;5067659;28;20644;-74
2021/07/25 09:30:53;;;;;;;12.57;11.40;;;26.90;95.60;;;;;;5063242;28;20776;-74
2021/07/25 09:33:33;;;;;;;12.57;11.48;;;27.00;95.50;;;;;;5067893;28;20297;-74
2021/07/25 09:36:12;;;;;;;12.68;11.57;;;27.00;95.70;;;;;;5067862;28;20654;-74
2021/07/25 09:38:41;;;;;;;12.63;11.35;;;27.10;96.30;;;;;;5067939;28;20283;-74
2021/07/25 09:41:23;;;;;;;12.38;11.30;;;27.20;96.40;;;;;;5067878;28;20199;-74
2021/07/25 09:44:09;;;;;;;11.73;10.73;;;27.20;96.40;;;;;;5067602;28;20258;-74
2021/07/25 09:46:44;;;;;;;11.45;10.55;;;27.20;96.10;;;;;;5067528;28;20203;-74
2021/07/25 09:49:12;;;;;;;12.43;11.32;;;27.30;96.30;;;;;;5067525;28;20215;-74
2021/07/25 09:51:39;;;;;;;11.98;10.88;;;27.40;96.10;;;;;;5067335;28;20493;-74
2021/07/25 09:54:06;;;;;;;12.77;11.50;;;27.40;95.60;;;;;;5067306;28;20207;-74
2021/07/25 09:56:33;;;;;;;12.63;11.35;;;27.50;95.60;;;;;;5067253;28;21010;-74
2021/07/25 09:59:00;;;;;;;12.07;11.07;;;27.60;95.40;;;;;;5067299;28;20207;-74
2021/07/25 10:01:38;;;;;;;12.88;11.65;;;27.70;95.40;;;;;;5067377;28;20261;-74
2021/07/25 10:04:14;;;;;;;12.85;11.68;;;27.70;95.30;;;;;;5066486;28;20234;-74
2021/07/25 10:06:43;;;;;;;13.50;11.50;;;27.80;95.70;;;;;;5066551;28;20636;-74
2021/07/25 10:09:11;;;;;;;12.52;11.32;;;27.80;95.60;;;;;;5066471;28;20231;-74
2021/07/25 10:11:40;;;;;;;13.02;11.93;;;27.90;95.30;;;;;;5067041;28;20257;-74
2021/07/25 10:14:07;;;;;;;12.18;11.20;;;28.00;95.40;;;;;;5067050;28;20673;-74
2021/07/25 10:16:34;;;;;;;12.93;11.63;;;28.00;95.20;;;;;;5067217;28;20218;-74
2021/07/25 10:19:03;;;;;;;15.25;11.88;;;28.10;95.10;;;;;;5067242;28;20203;-74
2021/07/25 10:21:34;;;;;;;12.20;11.18;;;28.20;95.20;;;;;;5066849;28;20276;-74
2021/07/25 10:24:02;;;;;;;12.07;11.00;;;28.20;95.00;;;;;;5067336;28;20329;-74
2021/07/25 10:26:30;;;;;;;13.35;12.13;;;28.30;95.00;;;;;;5066869;28;20590;-74
2021/07/25 10:28:58;;;;;;;13.75;12.25;;;28.30;95.00;;;;;;5066738;28;20296;-74
2021/07/25 10:31:26;;;;;;;12.18;11.15;;;28.30;95.50;;;;;;5066990;28;20208;-74
2021/07/25 10:33:54;;;;;;;12.02;10.75;;;28.40;95.30;;;;;;5065281;28;20308;-74
2021/07/25 10:36:23;;;;;;;12.88;11.48;;;28.50;94.80;;;;;;5066334;28;20744;-74
2021/07/25 10:38:51;;;;;;;12.13;11.05;;;28.50;94.80;;;;;;5066948;28;20211;-75
2021/07/25 10:41:23;;;;;;;12.57;11.38;;;28.60;94.60;;;;;;5066763;28;20238;-75
2021/07/25 10:43:50;;;;;;;12.32;11.07;;;28.80;94.30;;;;;;5066697;28;20227;-75
2021/07/25 10:46:21;;;;;;;12.93;11.63;;;28.90;94.50;;;;;;5066666;28;20269;-74
2021/07/25 10:49:16;;;;;;;13.65;11.52;;;28.90;94.10;;;;;;5066447;28;20202;-74
2021/07/25 10:52:01;;;;;;;13.40;10.85;;;28.90;94.00;;;;;;5066504;28;20253;-75
2021/07/25 10:54:46;;;;;;;11.90;10.80;;;29.00;93.70;;;;;;5066154;28;20216;-75
2021/07/25 10:57:12;;;;;;;16.60;11.15;;;29.20;94.10;;;;;;5066085;28;20653;-74
2021/07/25 10:59:40;;;;;;;13.77;11.15;;;29.40;94.20;;;;;;5066336;28;20227;-74
2021/07/25 11:02:08;;;;;;;14.15;11.40;;;29.50;94.40;;;;;;5066397;28;20207;-75
2021/07/25 11:05:03;;;;;;;12.85;11.57;;;29.50;93.60;;;;;;5065769;28;20238;-74
2021/07/25 11:07:41;;;;;;;11.95;10.90;;;29.50;93.70;;;;;;5066077;28;20218;-75
2021/07/25 11:10:14;;;;;;;12.65;11.27;;;29.40;94.50;;;;;;5065607;28;20238;-74
2021/07/25 11:13:16;;;;;;;12.60;11.40;;;29.50;95.00;;;;;;5065421;28;20573;-74
2021/07/25 11:15:42;;;;;;;13.35;12.02;;;29.60;95.00;;;;;;5065723;28;20199;-74
2021/07/25 11:18:11;;;;;;;13.52;12.40;;;29.60;95.60;;;;;;5065670;28;20736;-74
2021/07/25 11:20:41;;;;;;;13.13;11.70;;;29.80;95.00;;;;;;5065356;28;20583;-74
2021/07/25 11:23:13;;;;;;;12.93;11.73;;;29.90;94.60;;;;;;5065441;28;20261;-74
2021/07/25 11:25:41;;;;;;;15.20;12.23;;;30.00;95.00;;;;;;5065212;28;20243;-74
2021/07/25 11:28:09;;;;;;;12.45;11.43;;;30.20;95.00;;;;;;5065111;28;20263;-75
2021/07/25 11:31:10;;;;;;;12.20;11.20;;;30.30;94.70;;;;;;5064967;28;20207;-74
2021/07/25 11:34:01;;;;;;;13.35;12.00;;;30.50;94.10;;;;;;5063796;28;20230;-74
2021/07/25 11:36:28;;;;;;;12.95;11.75;;;30.50;93.70;;;;;;5046821;28;20204;-74
2021/07/25 11:38:56;;;;;;;13.00;11.80;;;30.60;94.10;;;;;;5064959;28;20254;-74
2021/07/25 11:41:26;;;;;;;11.65;10.57;;;30.70;93.90;;;;;;5065165;28;20207;-74
2021/07/25 11:43:56;;;;;;;8.52;7.88;;;30.80;92.90;;;;;;5065313;28;20211;-77
2021/07/25 11:46:28;;;;;;;10.77;9.77;;;30.90;92.60;;;;;;5065011;28;20257;-78
2021/07/25 11:49:16;;;;;;;11.68;10.40;;;31.00;92.50;;;;;;5064971;28;20252;-74
2021/07/25 11:51:45;;;;;;;12.10;10.93;;;31.00;92.90;;;;;;5063822;28;20281;-74
2021/07/25 11:54:12;;;;;;;11.68;10.55;;;31.00;93.70;;;;;;5066389;28;20211;-74
2021/07/25 11:56:53;;;;;;;11.75;10.65;;;30.90;92.80;;;;;;5068796;28;20203;-74
2021/07/25 11:59:20;;;;;;;11.80;10.90;;;31.10;92.70;;;;;;5069111;28;20292;-74
2021/07/25 12:01:47;;;;;;;13.05;11.80;;;31.30;93.10;;;;;;5068801;28;20239;-74
2021/07/25 12:04:19;;;;;;;12.52;11.43;;;31.30;93.50;;;;;;5068717;28;20227;-74
2021/07/25 12:06:46;;;;;;;12.75;11.57;;;31.40;92.80;;;;;;5068869;28;20204;-74
2021/07/25 12:09:13;;;;;;;16.23;11.93;;;31.50;92.60;;;;;;5068607;28;20239;-74
2021/07/25 12:11:40;;;;;;;15.07;12.18;;;31.60;93.20;;;;;;5068831;28;20610;-74
2021/07/25 12:14:08;;;;;;;12.65;11.55;;;31.40;91.80;;;;;;5069066;28;20234;-74
2021/07/25 12:16:47;;;;;;;12.32;11.15;;;31.20;92.20;;;;;;5068751;28;20249;-74
2021/07/25 12:19:15;;;;;;;11.90;10.82;;;31.20;93.10;;;;;;5068875;28;20234;-74
2021/07/25 12:21:43;;;;;;;12.82;11.77;;;31.00;92.60;;;;;;5067985;28;20992;-74
2021/07/25 12:24:26;;;;;;;12.52;11.25;;;31.00;93.20;;;;;;5068205;28;20220;-74
2021/07/25 12:26:53;;;;;;;13.27;11.90;;;31.20;93.40;;;;;;5067874;28;20991;-74
2021/07/25 12:29:44;;;;;;;12.55;11.55;;;31.40;94.30;;;;;;5068134;28;20239;-74
2021/07/25 12:32:28;;;;;;;14.75;11.60;;;31.50;93.00;;;;;;5068182;28;20199;-75
2021/07/25 12:35:12;;;;;;;13.52;11.68;;;31.60;92.80;;;;;;5060792;28;20219;-74
2021/07/25 12:37:43;;;;;;;12.93;10.75;;;31.50;92.60;;;;;;5048213;28;20214;-76